createdAt,value
2023-03-06T00:01:51.879Z,15.90
2023-03-06T00:04:22.123Z,14.63
2023-03-06T00:06:52.318Z,13.27
2023-03-06T00:09:22.587Z,13.37
2023-03-06T00:11:52.798Z,11.90
2023-03-06T00:14:23.011Z,11.23
2023-03-06T00:16:57.628Z,14.73
2023-03-06T00:19:28.037Z,15.30
2023-03-06T00:21:58.262Z,12.83
2023-03-06T00:24:28.481Z,9.53
2023-03-06T00:26:58.719Z,10.73
2023-03-06T00:29:29.626Z,12.07
2023-03-06T00:32:02.449Z,17.83
2023-03-06T00:34:32.878Z,12.07
2023-03-06T00:37:03.072Z,13.83
2023-03-06T00:39:33.356Z,13.30
2023-03-06T00:42:03.729Z,12.43
2023-03-06T00:44:34.219Z,13.80
2023-03-06T00:47:08.364Z,14.13
2023-03-06T00:49:38.671Z,14.73
2023-03-06T00:52:09.264Z,13.90
2023-03-06T00:54:39.875Z,18.57
2023-03-06T00:57:10.476Z,14.60
2023-03-06T00:59:40.739Z,16.23
2023-03-06T01:02:13.554Z,14.93
2023-03-06T01:04:43.877Z,11.47
2023-03-06T01:07:14.794Z,13.73
2023-03-06T01:09:45.200Z,13.33
2023-03-06T01:12:15.418Z,14.97
2023-03-06T01:14:45.687Z,14.17
2023-03-06T01:17:18.650Z,14.57
2023-03-06T01:19:49.003Z,14.23
2023-03-06T01:22:19.259Z,12.30
2023-03-06T01:24:49.694Z,15.50
2023-03-06T01:27:19.878Z,13.60
2023-03-06T01:29:50.050Z,11.33
2023-03-06T01:32:22.982Z,11.10
2023-03-06T01:34:53.612Z,19.87
2023-03-06T01:37:24.015Z,13.03
2023-03-06T01:39:54.254Z,13.40
2023-03-06T01:42:24.489Z,15.60
2023-03-06T01:45:06.235Z,15.87
2023-03-06T01:47:40.896Z,18.73
2023-03-06T01:50:15.135Z,19.90
2023-03-06T01:52:49.736Z,18.97
2023-03-06T01:55:21.567Z,15.52
2023-03-06T01:57:55.132Z,16.27
2023-03-06T02:00:26.881Z,17.17
2023-03-06T02:03:01.581Z,18.00
2023-03-06T02:05:31.778Z,14.33
2023-03-06T02:08:02.188Z,14.60
2023-03-06T02:10:32.770Z,14.53
2023-03-06T02:13:03.450Z,11.43
2023-03-06T02:15:34.281Z,15.77
2023-03-06T02:18:07.308Z,13.87
2023-03-06T02:20:42.268Z,15.47
2023-03-06T02:23:19.453Z,13.63
2023-03-06T02:25:54.055Z,14.03
2023-03-06T02:30:55.675Z,12.73
2023-03-06T02:33:27.540Z,13.63
2023-03-06T02:35:59.040Z,12.90
2023-03-06T02:38:34.101Z,14.13
2023-03-06T02:41:10.959Z,14.93
2023-03-06T02:43:42.185Z,13.70
2023-03-06T02:46:13.251Z,15.57
2023-03-06T02:48:43.633Z,15.13
2023-03-06T02:51:13.928Z,16.73
2023-03-06T02:53:44.118Z,15.77
2023-03-06T02:56:17.048Z,12.97
2023-03-06T02:58:47.297Z,16.27
2023-03-06T03:01:17.600Z,16.10
2023-03-06T03:03:47.862Z,20.87
2023-03-06T03:06:18.528Z,19.97
2023-03-06T03:08:49.053Z,17.03
2023-03-06T03:11:22.349Z,18.47
2023-03-06T03:13:52.621Z,18.67
2023-03-06T03:16:26.942Z,23.85
2023-03-06T03:19:01.008Z,18.60
2023-03-06T03:21:31.569Z,16.40
2023-03-06T03:24:01.877Z,16.90
2023-03-06T03:26:34.778Z,21.53
2023-03-06T03:29:13.588Z,15.97
2023-03-06T03:31:44.019Z,21.17
2023-03-06T03:34:14.320Z,16.93
2023-03-06T03:36:45.882Z,21.20
2023-03-06T03:39:17.338Z,17.07
2023-03-06T03:41:50.434Z,18.30
2023-03-06T03:44:20.746Z,18.93
2023-03-06T03:46:51.816Z,20.23
2023-03-06T03:49:25.395Z,19.45
2023-03-06T03:51:56.682Z,17.90
2023-03-06T03:54:29.064Z,19.80
2023-03-06T03:57:02.473Z,18.80
2023-03-06T03:59:36.842Z,14.30
2023-03-06T04:02:14.864Z,20.90
2023-03-06T04:04:53.714Z,17.37
2023-03-06T04:07:24.251Z,20.10
2023-03-06T04:09:54.572Z,16.67
2023-03-06T04:12:27.477Z,19.37
2023-03-06T04:14:57.678Z,16.50
2023-03-06T04:17:29.141Z,22.13
2023-03-06T04:20:00.002Z,15.77
2023-03-06T04:22:30.518Z,18.53
2023-03-06T04:25:00.723Z,16.77
2023-03-06T04:27:33.794Z,23.80
2023-03-06T04:30:04.122Z,18.77
2023-03-06T04:32:35.856Z,19.93
2023-03-06T04:35:06.244Z,15.93
2023-03-06T04:37:41.971Z,18.17
2023-03-06T04:40:18.960Z,18.63
2023-03-06T04:42:52.310Z,17.60
2023-03-06T04:45:22.770Z,18.13
2023-03-06T04:47:53.054Z,20.83
2023-03-06T04:50:24.064Z,19.07
2023-03-06T04:52:54.483Z,23.60
2023-03-06T04:55:24.732Z,18.67
2023-03-06T04:57:57.678Z,14.53
2023-03-06T05:00:30.508Z,19.53
2023-03-06T05:03:01.438Z,17.87
2023-03-06T05:05:31.805Z,16.27
2023-03-06T05:08:02.059Z,17.10
2023-03-06T05:10:32.267Z,21.17
2023-03-06T05:13:05.092Z,21.47
2023-03-06T05:15:35.276Z,18.67
2023-03-06T05:18:05.546Z,22.67
2023-03-06T05:20:35.748Z,17.80
2023-03-06T05:23:05.965Z,14.30
2023-03-06T05:25:36.205Z,18.37
2023-03-06T05:28:09.023Z,17.73
2023-03-06T05:30:39.828Z,21.97
2023-03-06T05:33:10.128Z,16.90
2023-03-06T05:35:40.418Z,18.67
2023-03-06T05:38:10.700Z,20.07
2023-03-06T05:40:43.314Z,30.10
2023-03-06T05:43:16.472Z,18.43
2023-03-06T05:45:46.726Z,19.93
2023-03-06T05:48:16.942Z,24.13
2023-03-06T05:50:47.118Z,18.33
2023-03-06T05:53:17.353Z,19.53
2023-03-06T05:55:47.548Z,14.27
2023-03-06T05:58:20.392Z,18.53
2023-03-06T06:00:52.159Z,20.77
2023-03-06T06:03:22.738Z,17.53
2023-03-06T06:05:53.181Z,20.17
2023-03-06T06:08:23.738Z,22.77
2023-03-06T06:10:53.911Z,21.97
2023-03-06T06:13:26.766Z,19.30
2023-03-06T06:15:57.011Z,19.53
2023-03-06T06:18:27.443Z,20.17
2023-03-06T06:20:57.582Z,31.90
2023-03-06T06:23:27.794Z,24.53
2023-03-06T06:25:58.091Z,23.63
2023-03-06T06:28:30.933Z,25.93
2023-03-06T06:31:01.296Z,24.10
2023-03-06T06:33:31.537Z,18.70
2023-03-06T06:36:01.762Z,21.70
2023-03-06T06:38:31.993Z,19.93
2023-03-06T06:41:33.023Z,19.37
2023-03-06T06:43:55.757Z,15.87
2023-03-06T06:47:10.802Z,21.35
2023-03-06T06:49:17.373Z,22.57
2023-03-06T06:51:47.964Z,23.63
2023-03-06T06:54:18.886Z,16.27
2023-03-06T06:56:49.142Z,22.40
2023-03-06T06:59:23.867Z,22.07
2023-03-06T07:01:54.177Z,22.73
2023-03-06T07:04:24.412Z,26.57
2023-03-06T07:06:54.613Z,22.17
2023-03-06T07:09:25.056Z,22.33
2023-03-06T07:11:55.297Z,20.17
2023-03-06T07:14:28.081Z,24.67
2023-03-06T07:16:58.786Z,24.93
2023-03-06T07:19:29.479Z,19.33
2023-03-06T07:22:00.222Z,22.90
2023-03-06T07:24:30.669Z,25.97
2023-03-06T07:27:00.987Z,28.30
2023-03-06T07:29:34.635Z,25.43
2023-03-06T07:32:05.220Z,22.20
2023-03-06T07:34:35.945Z,32.83
2023-03-06T07:37:06.280Z,22.07
2023-03-06T07:39:36.481Z,26.70
2023-03-06T07:42:07.859Z,25.93
2023-03-06T07:44:42.196Z,23.57
2023-03-06T07:47:12.487Z,22.80
2023-03-06T07:49:42.986Z,27.70
2023-03-06T07:52:13.812Z,23.13
2023-03-06T07:54:44.008Z,27.60
2023-03-06T07:57:14.269Z,24.30
2023-03-06T07:59:47.044Z,25.50
2023-03-06T08:02:17.372Z,20.50
2023-03-06T08:04:47.705Z,25.13
2023-03-06T08:07:18.157Z,25.13
2023-03-06T08:09:48.622Z,28.97
2023-03-06T08:12:19.056Z,25.00
2023-03-06T08:14:51.908Z,27.43
2023-03-06T08:17:22.093Z,27.83
2023-03-06T08:19:52.290Z,20.73
2023-03-06T08:22:22.552Z,20.40
2023-03-06T08:24:52.734Z,21.67
2023-03-06T08:27:22.999Z,18.57
2023-03-06T08:29:55.786Z,17.70
2023-03-06T08:32:26.145Z,16.53
2023-03-06T08:34:56.612Z,23.23
2023-03-06T08:37:26.878Z,23.27
2023-03-06T08:39:57.113Z,20.00
2023-03-06T08:42:27.403Z,18.67
2023-03-06T08:45:00.524Z,21.63
2023-03-06T08:47:30.755Z,20.92
2023-03-06T08:50:01.432Z,23.15
2023-03-06T08:52:31.605Z,20.45
2023-03-06T08:55:03.561Z,22.47
2023-03-06T08:57:33.969Z,22.07
2023-03-06T09:00:09.074Z,16.47
2023-03-06T09:02:39.273Z,18.50
2023-03-06T09:05:10.800Z,17.17
2023-03-06T09:07:41.482Z,16.87
2023-03-06T09:10:16.283Z,20.87
2023-03-06T09:12:51.281Z,16.10
2023-03-06T09:15:25.676Z,21.45
2023-03-06T09:17:56.901Z,16.02
2023-03-06T09:20:27.251Z,15.98
2023-03-06T09:22:57.644Z,14.70
2023-03-06T09:25:28.017Z,16.55
2023-03-06T09:28:10.489Z,16.20
2023-03-06T09:30:45.932Z,14.93
2023-03-06T09:35:51.019Z,13.85
2023-03-06T09:38:25.579Z,17.35
2023-03-06T09:41:02.962Z,17.27
2023-03-06T09:43:35.611Z,18.67
2023-03-06T09:46:17.123Z,19.33
2023-03-06T09:48:51.680Z,15.48
2023-03-06T09:54:01.089Z,14.35
2023-03-06T09:56:35.921Z,14.10
2023-03-06T09:59:10.642Z,16.33
2023-03-06T10:01:44.946Z,17.73
2023-03-06T10:04:35.045Z,19.58
2023-03-06T10:07:08.083Z,13.05
2023-03-06T10:09:42.678Z,16.92
2023-03-06T10:12:24.842Z,17.73
2023-03-06T10:15:09.685Z,13.20
2023-03-06T10:17:43.902Z,13.88
2023-03-06T10:20:21.814Z,13.82
2023-03-06T10:23:11.094Z,13.60
2023-03-06T10:25:49.966Z,15.87
2023-03-06T10:28:21.120Z,13.23
2023-03-06T10:30:55.546Z,15.90
2023-03-06T10:35:59.577Z,18.20
2023-03-06T10:38:31.037Z,14.32
2023-03-06T10:41:10.479Z,13.20
2023-03-06T10:43:42.261Z,17.30
2023-03-06T10:46:15.045Z,14.23
2023-03-06T10:48:45.827Z,18.13
2023-03-06T10:51:22.639Z,16.17
2023-03-06T10:53:54.446Z,15.63
2023-03-06T10:56:34.256Z,12.50
2023-03-06T10:59:12.110Z,15.33
2023-03-06T11:01:42.783Z,14.67
2023-03-06T11:04:25.692Z,12.88
2023-03-06T11:07:16.161Z,14.43
2023-03-06T11:09:48.307Z,12.83
2023-03-06T11:12:29.964Z,15.30
2023-03-06T11:15:17.770Z,11.93
2023-03-06T11:18:03.617Z,11.10
2023-03-06T11:20:50.624Z,15.45
2023-03-06T11:23:26.011Z,11.43
2023-03-06T11:26:02.121Z,14.82
2023-03-06T11:28:35.793Z,13.10
2023-03-06T11:31:09.432Z,13.20
2023-03-06T11:33:45.714Z,21.60
2023-03-06T11:36:19.268Z,13.70
2023-03-06T11:38:53.451Z,11.93
2023-03-06T11:41:27.522Z,14.30
2023-03-06T11:44:02.743Z,16.20
2023-03-06T11:46:35.977Z,12.25
2023-03-06T11:49:09.822Z,12.23
2023-03-06T11:51:43.723Z,13.05
2023-03-06T11:54:17.036Z,9.73
2023-03-06T11:56:51.691Z,9.75
2023-03-06T11:59:40.828Z,10.93
2023-03-06T12:02:24.485Z,12.32
2023-03-06T12:04:58.356Z,11.25
2023-03-06T12:07:35.722Z,13.35
2023-03-06T12:10:12.971Z,15.35
2023-03-06T12:12:58.174Z,10.07
2023-03-06T12:15:33.530Z,11.02
2023-03-06T12:18:10.541Z,12.05
2023-03-06T12:20:48.773Z,13.68
2023-03-06T12:23:26.479Z,11.50
2023-03-06T12:26:05.106Z,10.10
2023-03-06T12:29:04.142Z,11.00
2023-03-06T12:31:46.197Z,11.10
2023-03-06T12:34:30.984Z,10.23
2023-03-06T12:39:45.285Z,14.52
2023-03-06T12:42:36.936Z,10.45
2023-03-06T12:45:25.270Z,10.30
2023-03-06T12:47:59.086Z,10.50
2023-03-06T12:50:31.190Z,9.80
2023-03-06T12:53:04.728Z,8.52
2023-03-06T12:55:40.225Z,12.40
2023-03-06T12:58:40.292Z,9.73
2023-03-06T13:01:20.139Z,11.43
2023-03-06T13:04:31.834Z,12.43
2023-03-06T13:07:14.544Z,11.40
2023-03-06T13:10:08.717Z,10.60
2023-03-06T13:12:55.899Z,11.30
2023-03-06T13:15:41.983Z,9.27
2023-03-06T13:18:52.656Z,9.15
2023-03-06T13:21:52.554Z,12.43
2023-03-06T13:24:24.193Z,11.38
2023-03-06T13:26:59.004Z,9.30
2023-03-06T13:30:02.349Z,10.45
2023-03-06T13:32:37.839Z,10.13
2023-03-06T13:35:50.171Z,12.20
2023-03-06T13:38:37.020Z,10.02
2023-03-06T13:41:37.820Z,10.85
2023-03-06T13:44:49.658Z,12.05
2023-03-06T13:48:21.035Z,10.07
2023-03-06T13:50:47.569Z,12.57
2023-03-06T13:54:04.430Z,12.68
2023-03-06T13:57:01.124Z,9.75
2023-03-06T14:00:03.158Z,10.45
2023-03-06T14:02:56.805Z,11.38
2023-03-06T14:05:28.175Z,11.05
2023-03-06T14:08:11.180Z,10.55
2023-03-06T14:10:44.361Z,10.85
2023-03-06T14:13:21.164Z,7.85
2023-03-06T14:15:52.611Z,12.52
2023-03-06T14:18:25.197Z,11.23
2023-03-06T14:20:59.459Z,9.13
2023-03-06T14:23:32.403Z,7.82
2023-03-06T14:26:11.125Z,9.13
2023-03-06T14:28:41.275Z,8.13
2023-03-06T14:31:18.913Z,9.57
2023-03-06T14:33:54.581Z,8.52
2023-03-06T14:36:26.589Z,11.85
2023-03-06T14:38:59.392Z,11.07
2023-03-06T14:41:33.654Z,11.32
2023-03-06T14:44:19.668Z,8.93
2023-03-06T14:46:51.619Z,13.80
2023-03-06T14:49:23.696Z,11.02
2023-03-06T14:51:56.685Z,9.93
2023-03-06T14:54:30.318Z,8.85
2023-03-06T14:57:06.459Z,10.30
2023-03-06T14:59:43.875Z,9.60
2023-03-06T15:02:19.095Z,13.20
2023-03-06T15:04:52.190Z,10.55
2023-03-06T15:07:27.170Z,12.18
2023-03-06T15:09:57.887Z,10.13
2023-03-06T15:12:41.329Z,10.43
2023-03-06T15:15:33.619Z,13.93
2023-03-06T15:18:03.953Z,12.23
2023-03-06T15:20:46.115Z,10.38
2023-03-06T15:23:19.841Z,14.32
2023-03-06T15:25:58.017Z,13.82
2023-03-06T15:28:35.268Z,13.05
2023-03-06T15:31:23.732Z,10.50
2023-03-06T15:34:23.527Z,12.82
2023-03-06T15:36:58.784Z,9.43
2023-03-06T15:39:35.849Z,10.05
2023-03-06T15:42:18.124Z,13.07
2023-03-06T15:44:54.626Z,9.90
2023-03-06T15:47:25.170Z,12.65
2023-03-06T15:49:56.368Z,12.90
2023-03-06T15:52:27.031Z,10.60
2023-03-06T15:54:57.247Z,11.20
2023-03-06T15:57:29.458Z,12.70
2023-03-06T16:00:04.513Z,9.32
2023-03-06T16:02:41.663Z,10.48
2023-03-06T16:05:18.292Z,13.45
2023-03-06T16:07:49.037Z,12.98
2023-03-06T16:10:20.834Z,11.88
2023-03-06T16:12:53.340Z,14.75
2023-03-06T16:15:29.167Z,10.68
2023-03-06T16:17:59.825Z,11.57
2023-03-06T16:20:32.700Z,11.73
2023-03-06T16:23:07.873Z,10.32
2023-03-06T16:25:38.233Z,8.38
2023-03-06T16:28:10.448Z,13.93
2023-03-06T16:30:45.356Z,11.93
2023-03-06T16:33:16.418Z,12.90
2023-03-06T16:35:47.314Z,13.27
2023-03-06T16:38:18.324Z,13.07
2023-03-06T16:40:48.580Z,11.88
2023-03-06T16:43:18.759Z,11.50
2023-03-06T16:45:51.578Z,11.20
2023-03-06T16:48:22.176Z,14.40
2023-03-06T16:50:52.632Z,11.77
2023-03-06T16:53:22.852Z,13.45
2023-03-06T16:55:53.100Z,14.80
2023-03-06T16:58:23.306Z,10.88
2023-03-06T17:00:56.116Z,15.32
2023-03-06T17:03:26.498Z,13.77
2023-03-06T17:05:56.764Z,13.10
2023-03-06T17:08:27.002Z,12.43
2023-03-06T17:10:57.225Z,14.23
2023-03-06T17:13:27.441Z,15.73
2023-03-06T17:16:01.975Z,16.42
2023-03-06T17:21:02.853Z,15.03
2023-03-06T17:23:33.083Z,14.87
2023-03-06T17:26:08.091Z,16.60
2023-03-06T17:28:41.050Z,15.93
2023-03-06T17:31:17.961Z,21.92
2023-03-06T17:33:48.761Z,19.40
2023-03-06T17:36:19.660Z,18.63
2023-03-06T17:38:49.969Z,17.47
2023-03-06T17:41:24.377Z,18.27
2023-03-06T17:46:27.279Z,14.37
2023-03-06T17:49:00.921Z,21.77
2023-03-06T17:51:31.472Z,19.50
2023-03-06T17:54:01.818Z,19.53
2023-03-06T17:56:32.023Z,16.70
2023-03-06T17:59:03.001Z,18.45
2023-03-06T18:01:35.593Z,15.23
2023-03-06T18:04:06.048Z,14.50
2023-03-06T18:06:36.878Z,16.95
2023-03-06T18:09:07.892Z,18.55
2023-03-06T18:11:38.064Z,17.80
2023-03-06T18:14:08.270Z,19.10
2023-03-06T18:16:41.110Z,15.93
2023-03-06T18:19:13.724Z,18.43
2023-03-06T18:21:43.934Z,21.13
2023-03-06T18:24:14.250Z,18.35
2023-03-06T18:26:45.853Z,14.83
2023-03-06T18:29:16.599Z,16.90
2023-03-06T18:31:50.405Z,22.55
2023-03-06T18:34:20.612Z,15.98
2023-03-06T18:36:52.792Z,15.73
2023-03-06T18:39:23.934Z,17.77
2023-03-06T18:41:55.973Z,18.13
2023-03-06T18:44:26.261Z,16.40
2023-03-06T18:46:59.098Z,19.97
2023-03-06T18:49:29.333Z,16.00
2023-03-06T18:51:59.561Z,20.25
2023-03-06T18:54:29.792Z,15.90
2023-03-06T18:57:00.101Z,17.85
2023-03-06T18:59:30.277Z,19.63
2023-03-06T19:02:03.048Z,18.37
2023-03-06T19:04:33.424Z,15.67
2023-03-06T19:07:03.757Z,20.40
2023-03-06T19:09:34.030Z,14.80
2023-03-06T19:12:05.313Z,17.80
2023-03-06T19:14:36.353Z,17.60
2023-03-06T19:17:09.187Z,14.73
2023-03-06T19:19:39.414Z,16.13
2023-03-06T19:22:09.595Z,12.52
2023-03-06T19:24:39.810Z,16.10
2023-03-06T19:27:11.454Z,15.47
2023-03-06T19:29:42.354Z,19.17
2023-03-06T19:32:15.270Z,15.10
2023-03-06T19:34:45.597Z,19.87
2023-03-06T19:37:15.935Z,15.13
2023-03-06T19:39:46.832Z,16.80
2023-03-06T19:42:17.269Z,18.90
2023-03-06T19:44:47.871Z,17.77
2023-03-06T19:47:20.676Z,17.73
2023-03-06T19:49:50.839Z,18.40
2023-03-06T19:52:21.047Z,16.73
2023-03-06T19:54:51.321Z,16.63
2023-03-06T19:57:21.909Z,18.92
2023-03-06T19:59:53.371Z,18.20
2023-03-06T20:02:27.241Z,13.77
2023-03-06T20:04:57.854Z,18.70
2023-03-06T20:07:28.016Z,16.85
2023-03-06T20:10:00.813Z,16.92
2023-03-06T20:12:32.083Z,19.20
2023-03-06T20:15:02.345Z,20.40
2023-03-06T20:17:35.803Z,16.93
2023-03-06T20:22:30.893Z,20.55
2023-03-06T20:25:01.066Z,17.05
2023-03-06T20:27:31.301Z,18.90
2023-03-06T20:30:01.522Z,28.13
2023-03-06T20:32:31.840Z,40.47
2023-03-06T20:35:02.195Z,21.45
2023-03-06T20:37:35.103Z,23.60
2023-03-06T20:40:05.244Z,17.50
2023-03-06T20:42:35.517Z,19.13
2023-03-06T20:45:06.183Z,18.88
2023-03-06T20:47:36.526Z,21.13
2023-03-06T20:50:06.817Z,23.20
2023-03-06T20:52:39.618Z,21.35
2023-03-06T20:55:10.277Z,21.57
2023-03-06T20:57:40.536Z,18.60
2023-03-06T21:00:11.908Z,26.90
2023-03-06T21:02:41.808Z,19.17
2023-03-06T21:05:12.788Z,16.58
2023-03-06T21:07:45.366Z,20.83
2023-03-06T21:10:15.686Z,23.92
2023-03-06T21:12:45.631Z,21.53
2023-03-06T21:15:15.911Z,18.83
2023-03-06T21:17:45.927Z,24.80
2023-03-06T21:20:16.038Z,19.35
2023-03-06T21:22:48.845Z,19.67
2023-03-06T21:25:19.155Z,19.93
2023-03-06T21:27:49.407Z,18.45
2023-03-06T21:30:19.727Z,18.15
2023-03-06T21:32:49.929Z,19.63
2023-03-06T21:35:20.047Z,19.93
2023-03-06T21:37:52.881Z,21.00
2023-03-06T21:40:23.105Z,19.67
2023-03-06T21:42:53.405Z,20.23
2023-03-06T21:45:23.427Z,20.37
2023-03-06T21:47:53.692Z,20.00
2023-03-06T21:50:23.865Z,23.30
2023-03-06T21:52:56.968Z,15.37
2023-03-06T21:55:27.264Z,19.77
2023-03-06T21:57:57.779Z,23.02
2023-03-06T22:00:27.729Z,17.65
2023-03-06T22:02:57.980Z,21.80
2023-03-06T22:05:28.260Z,15.57
2023-03-06T22:08:01.601Z,17.03
2023-03-06T22:10:31.895Z,16.50
2023-03-06T22:13:01.836Z,18.33
2023-03-06T22:15:32.042Z,16.80
2023-03-06T22:18:02.234Z,18.33
2023-03-06T22:20:32.459Z,13.77
2023-03-06T22:23:05.361Z,14.60
2023-03-06T22:25:37.280Z,15.33
2023-03-06T22:28:07.889Z,17.57
2023-03-06T22:30:37.976Z,15.57
2023-03-06T22:33:07.926Z,15.47
2023-03-06T22:35:38.207Z,13.27
2023-03-06T22:38:11.094Z,15.53
2023-03-06T22:40:41.297Z,18.93
2023-03-06T22:43:11.526Z,15.13
2023-03-06T22:45:41.808Z,16.77
2023-03-06T22:48:12.106Z,16.70
2023-03-06T22:50:42.333Z,13.00
2023-03-06T22:53:15.105Z,14.90
2023-03-06T22:55:45.261Z,13.25
2023-03-06T22:58:15.457Z,12.38
2023-03-06T23:00:45.661Z,14.70
2023-03-06T23:03:15.861Z,15.77
2023-03-06T23:05:46.015Z,15.70
2023-03-06T23:08:18.573Z,15.40
2023-03-06T23:10:48.729Z,13.00
2023-03-06T23:13:37.795Z,14.23
2023-03-06T23:16:26.633Z,16.10
2023-03-06T23:19:15.747Z,16.33
2023-03-06T23:22:04.749Z,15.23
2023-03-06T23:24:56.063Z,14.30
2023-03-06T23:27:26.408Z,15.47
2023-03-06T23:29:59.135Z,13.60
2023-03-06T23:32:29.167Z,14.60
2023-03-06T23:34:59.442Z,16.47
2023-03-06T23:37:29.693Z,16.03
2023-03-06T23:40:02.543Z,22.17
2023-03-06T23:42:32.777Z,14.13
2023-03-06T23:45:03.058Z,19.70
2023-03-06T23:47:34.587Z,16.77
2023-03-06T23:50:04.850Z,14.97
2023-03-06T23:52:35.163Z,17.87
2023-03-06T23:55:08.319Z,15.60
2023-03-06T23:57:38.548Z,17.30
